Time;durP1;ratioP1;P1;durP2;ratioP2;P2;SDS_P1;SDS_P2;PMS_P1;PMS_P2;Temp;Humidity;BMP_temperature;BMP_pressure;BME280_temperature;BME280_humidity;BME280_pressure;Samples;Min_cycle;Max_cycle;Signal;HPM_P1;HPM_P2
2024/05/02 00:00:49;;;;;;;4.13;2.70;;;;;;;;;;5457427;26;20456;-90
2024/05/02 00:03:15;;;;;;;3.47;2.60;;;;;;;;;;5457830;26;20071;-91
2024/05/02 00:05:41;;;;;;;10.70;3.10;;;;;;;;;;5458944;26;20010;-91
2024/05/02 00:08:07;;;;;;;4.55;2.78;;;;;;;;;;5458639;26;20430;-89
2024/05/02 00:10:33;;;;;;;3.10;2.80;;;;;;;;;;5458332;26;19994;-90
2024/05/02 00:12:59;;;;;;;4.00;3.10;;;;;;;;;;5458127;26;19990;-92
2024/05/02 00:15:25;;;;;;;7.70;3.00;;;;;;;;;;5457837;26;19998;-91
2024/05/02 00:17:51;;;;;;;4.30;3.10;;;;;;;;;;5457799;26;19998;-90
2024/05/02 00:20:17;;;;;;;5.82;3.25;;;;;;;;;;5457633;26;20026;-90
2024/05/02 00:22:43;;;;;;;3.28;2.83;;;;;;;;;;5457595;26;20326;-92
2024/05/02 00:25:09;;;;;;;4.65;3.22;;;;;;;;;;5458752;26;20002;-92
2024/05/02 00:27:35;;;;;;;6.00;3.08;;;;;;;;;;5457516;26;19990;-91
2024/05/02 00:30:01;;;;;;;4.05;3.30;;;;;;;;;;5457783;26;20002;-90
2024/05/02 00:32:27;;;;;;;5.20;3.17;;;;;;;;;;5458198;26;20061;-92
2024/05/02 00:34:53;;;;;;;5.88;3.28;;;;;;;;;;5457476;26;20005;-93
2024/05/02 00:37:19;;;;;;;6.38;3.40;;;;;;;;;;5457688;26;20001;-93
2024/05/02 00:39:45;;;;;;;6.25;3.38;;;;;;;;;;5457314;26;20002;-91
2024/05/02 00:42:11;;;;;;;3.55;3.13;;;;;;;;;;5458662;26;20343;-92
2024/05/02 00:44:37;;;;;;;3.30;2.88;;;;;;;;;;5457438;26;20466;-92
2024/05/02 00:47:04;;;;;;;5.88;3.75;;;;;;;;;;5457645;26;20001;-92
2024/05/02 00:49:31;;;;;;;4.53;3.08;;;;;;;;;;5457429;26;20022;-91
2024/05/02 00:51:57;;;;;;;4.20;3.05;;;;;;;;;;5457758;26;19990;-91
2024/05/02 00:54:24;;;;;;;5.20;3.33;;;;;;;;;;5457039;26;20006;-89
2024/05/02 00:56:50;;;;;;;7.47;3.10;;;;;;;;;;5457404;26;20004;-92
2024/05/02 00:59:16;;;;;;;4.35;2.97;;;;;;;;;;5457610;26;20006;-90
2024/05/02 01:01:42;;;;;;;7.75;3.55;;;;;;;;;;5458205;26;20336;-90
2024/05/02 01:04:08;;;;;;;5.50;3.17;;;;;;;;;;5457323;26;20005;-90
2024/05/02 01:06:34;;;;;;;7.07;3.03;;;;;;;;;;5456941;26;20006;-93
2024/05/02 01:09:00;;;;;;;4.32;2.90;;;;;;;;;;5488840;26;20005;-90
2024/05/02 01:11:28;;;;;;;5.18;2.85;;;;;;;;;;5456767;26;20430;-90
2024/05/02 01:13:54;;;;;;;4.35;3.20;;;;;;;;;;5457006;26;20066;-91
2024/05/02 01:16:20;;;;;;;8.00;3.00;;;;;;;;;;5457174;26;20230;-92
2024/05/02 01:18:49;;;;;;;7.15;3.20;;;;;;;;;;5457382;26;20352;-89
2024/05/02 01:21:15;;;;;;;4.13;3.03;;;;;;;;;;5457669;26;20070;-92
2024/05/02 01:23:41;;;;;;;4.97;3.20;;;;;;;;;;5457704;26;20426;-89
2024/05/02 01:26:07;;;;;;;4.15;3.20;;;;;;;;;;5456934;26;19994;-92
2024/05/02 01:28:33;;;;;;;6.25;3.40;;;;;;;;;;5456672;26;20009;-91
2024/05/02 01:30:59;;;;;;;4.07;3.00;;;;;;;;;;5456472;26;20009;-90
2024/05/02 01:33:25;;;;;;;7.10;4.40;;;;;;;;;;5456712;26;20351;-90
2024/05/02 01:35:51;;;;;;;6.35;3.50;;;;;;;;;;5456149;26;19998;-91
2024/05/02 01:38:17;;;;;;;4.70;3.20;;;;;;;;;;5456570;26;20009;-90
2024/05/02 01:40:43;;;;;;;6.35;3.40;;;;;;;;;;5457836;26;19998;-91
2024/05/02 01:43:09;;;;;;;3.55;3.13;;;;;;;;;;5456496;26;20005;-91
2024/05/02 01:45:35;;;;;;;8.43;3.55;;;;;;;;;;5456165;26;20323;-90
2024/05/02 01:48:01;;;;;;;4.95;3.22;;;;;;;;;;5456355;26;20025;-92
2024/05/02 01:50:27;;;;;;;4.90;2.85;;;;;;;;;;5456772;26;20024;-90
2024/05/02 01:52:53;;;;;;;4.63;3.30;;;;;;;;;;5456637;26;20562;-92
2024/05/02 01:55:19;;;;;;;4.47;3.20;;;;;;;;;;5456354;26;19998;-92
2024/05/02 01:57:46;;;;;;;10.77;3.58;;;;;;;;;;5456779;26;19998;-91
2024/05/02 02:00:12;;;;;;;6.65;3.63;;;;;;;;;;5455993;26;20074;-91
2024/05/02 02:02:38;;;;;;;7.40;3.25;;;;;;;;;;5456207;26;20061;-89
2024/05/02 02:05:04;;;;;;;5.10;2.63;;;;;;;;;;5454934;26;20006;-92
2024/05/02 02:07:30;;;;;;;5.13;3.22;;;;;;;;;;5456162;26;20007;-90
2024/05/02 02:09:56;;;;;;;7.53;3.00;;;;;;;;;;5455798;26;20340;-89
2024/05/02 02:12:22;;;;;;;4.97;3.33;;;;;;;;;;5455927;26;20436;-91
2024/05/02 02:14:48;;;;;;;7.88;3.53;;;;;;;;;;5456937;26;20330;-90
2024/05/02 02:17:14;;;;;;;7.82;3.10;;;;;;;;;;5456357;26;20330;-91
2024/05/02 02:19:40;;;;;;;5.32;2.90;;;;;;;;;;5455823;26;20071;-90
2024/05/02 02:22:06;;;;;;;11.00;3.80;;;;;;;;;;5455757;26;20005;-89
2024/05/02 02:24:32;;;;;;;9.73;3.53;;;;;;;;;;5455925;26;19998;-91
2024/05/02 02:26:58;;;;;;;4.97;3.38;;;;;;;;;;5456029;26;19998;-91
2024/05/02 02:29:24;;;;;;;5.53;3.30;;;;;;;;;;5456073;26;19998;-90
2024/05/02 02:31:50;;;;;;;5.05;3.33;;;;;;;;;;5456299;26;19994;-90
2024/05/02 02:34:16;;;;;;;8.43;3.20;;;;;;;;;;5456480;26;20017;-89
2024/05/02 02:36:42;;;;;;;8.45;3.50;;;;;;;;;;5455672;26;19994;-90
2024/05/02 02:39:08;;;;;;;7.35;3.28;;;;;;;;;;5455783;26;20302;-91
2024/05/02 02:41:34;;;;;;;9.73;3.30;;;;;;;;;;5455464;26;19994;-89
2024/05/02 02:44:00;;;;;;;6.93;3.67;;;;;;;;;;5455229;26;20366;-90
2024/05/02 02:46:26;;;;;;;6.45;3.25;;;;;;;;;;5455789;26;20005;-89
2024/05/02 02:48:52;;;;;;;5.40;3.25;;;;;;;;;;5455804;26;20518;-92
2024/05/02 02:51:18;;;;;;;9.90;3.25;;;;;;;;;;5456497;26;20009;-92
2024/05/02 02:53:44;;;;;;;8.65;3.83;;;;;;;;;;5455221;26;19994;-90
2024/05/02 02:56:10;;;;;;;5.10;3.15;;;;;;;;;;5455352;26;20599;-91
2024/05/02 02:58:36;;;;;;;8.80;4.07;;;;;;;;;;5455521;26;20022;-91
2024/05/02 03:01:02;;;;;;;6.85;3.55;;;;;;;;;;5455053;26;20043;-89
2024/05/02 03:03:28;;;;;;;6.65;3.42;;;;;;;;;;5455674;26;20062;-92
2024/05/02 03:05:56;;;;;;;5.03;3.50;;;;;;;;;;5455074;26;20471;-91
2024/05/02 03:08:23;;;;;;;7.55;3.35;;;;;;;;;;5455833;26;20002;-91
2024/05/02 03:10:49;;;;;;;3.88;3.30;;;;;;;;;;5456267;26;20097;-91
2024/05/02 03:13:15;;;;;;;6.80;3.42;;;;;;;;;;5455276;26;19994;-92
2024/05/02 03:15:41;;;;;;;8.63;3.60;;;;;;;;;;5454941;26;20014;-90
2024/05/02 03:18:07;;;;;;;7.10;3.20;;;;;;;;;;5457007;26;19994;-91
2024/05/02 03:20:33;;;;;;;7.32;3.38;;;;;;;;;;5458640;26;19998;-91
2024/05/02 03:22:59;;;;;;;4.82;3.40;;;;;;;;;;5458583;26;20355;-90
2024/05/02 03:25:25;;;;;;;5.30;3.08;;;;;;;;;;5458862;26;20006;-91
2024/05/02 03:27:51;;;;;;;10.43;3.72;;;;;;;;;;5459165;26;20430;-90
2024/05/02 03:30:18;;;;;;;5.88;3.53;;;;;;;;;;5459105;26;20089;-89
2024/05/02 03:32:44;;;;;;;9.43;3.70;;;;;;;;;;5459064;26;20001;-90
2024/05/02 03:35:10;;;;;;;8.00;3.47;;;;;;;;;;5458697;26;19996;-92
2024/05/02 03:37:36;;;;;;;7.75;4.47;;;;;;;;;;5458490;26;19990;-92
2024/05/02 03:40:01;;;;;;;5.30;3.25;;;;;;;;;;5458339;26;20450;-91
2024/05/02 03:42:27;;;;;;;7.38;3.25;;;;;;;;;;5458060;26;20018;-92
2024/05/02 03:44:53;;;;;;;6.00;3.47;;;;;;;;;;5458551;26;20450;-91
2024/05/02 03:47:19;;;;;;;7.85;3.72;;;;;;;;;;5458867;26;20005;-90
2024/05/02 03:49:45;;;;;;;5.68;3.53;;;;;;;;;;5457715;26;20013;-92
2024/05/02 03:52:11;;;;;;;8.40;3.50;;;;;;;;;;5457904;26;20017;-92
2024/05/02 03:54:37;;;;;;;6.43;3.38;;;;;;;;;;5457990;26;20456;-93
2024/05/02 03:57:04;;;;;;;7.63;3.30;;;;;;;;;;5458011;26;20002;-90
2024/05/02 03:59:30;;;;;;;4.63;3.00;;;;;;;;;;5457902;26;20005;-92
2024/05/02 04:01:56;;;;;;;7.20;2.95;;;;;;;;;;5458277;26;19998;-90
2024/05/02 04:04:22;;;;;;;4.60;2.83;;;;;;;;;;5458915;26;20334;-91
2024/05/02 04:06:48;;;;;;;4.80;3.03;;;;;;;;;;5457527;26;19998;-90
2024/05/02 04:09:14;;;;;;;7.40;2.80;;;;;;;;;;5458172;26;20486;-90
2024/05/02 04:11:40;;;;;;;8.95;2.90;;;;;;;;;;5457602;26;20006;-90
2024/05/02 04:14:06;;;;;;;5.00;2.70;;;;;;;;;;5458099;26;19998;-91
2024/05/02 04:16:32;;;;;;;8.38;2.97;;;;;;;;;;5457548;26;20005;-92
2024/05/02 04:18:58;;;;;;;7.18;2.45;;;;;;;;;;5457612;26;20002;-92
2024/05/02 04:21:24;;;;;;;5.13;2.53;;;;;;;;;;5458997;26;20013;-91
2024/05/02 04:23:50;;;;;;;4.60;2.65;;;;;;;;;;5457718;26;20126;-91
2024/05/02 04:26:16;;;;;;;4.38;2.60;;;;;;;;;;5457344;26;20146;-91
2024/05/02 04:28:42;;;;;;;7.10;2.47;;;;;;;;;;5456942;26;20008;-91
2024/05/02 04:31:08;;;;;;;4.75;2.17;;;;;;;;;;5457264;26;19991;-90
2024/05/02 04:33:34;;;;;;;7.10;2.22;;;;;;;;;;5457495;26;20071;-90
2024/05/02 04:36:00;;;;;;;6.38;2.20;;;;;;;;;;5457275;26;20002;-92
2024/05/02 04:38:26;;;;;;;5.85;2.08;;;;;;;;;;5458257;26;19998;-89
2024/05/02 04:40:52;;;;;;;4.85;2.40;;;;;;;;;;5457343;26;20514;-92
2024/05/02 04:43:18;;;;;;;4.65;2.60;;;;;;;;;;5458112;26;20002;-92
2024/05/02 04:45:45;;;;;;;8.32;2.65;;;;;;;;;;5457375;26;19990;-90
2024/05/02 04:48:11;;;;;;;5.93;2.00;;;;;;;;;;5457005;26;20454;-91
2024/05/02 04:50:37;;;;;;;4.18;1.92;;;;;;;;;;5456755;26;19998;-92
2024/05/02 04:53:03;;;;;;;4.30;2.08;;;;;;;;;;5445709;26;20503;-90
2024/05/02 04:55:29;;;;;;;6.50;2.05;;;;;;;;;;5456288;26;19998;-91
2024/05/02 04:57:56;;;;;;;5.47;2.30;;;;;;;;;;5463104;26;20030;-92
2024/05/02 05:00:22;;;;;;;7.57;2.28;;;;;;;;;;5450593;26;20002;-89
2024/05/02 05:02:48;;;;;;;10.10;2.53;;;;;;;;;;5451089;26;20153;-89
2024/05/02 05:05:14;;;;;;;4.95;2.20;;;;;;;;;;5456692;26;19994;-93
2024/05/02 05:07:40;;;;;;;3.92;2.30;;;;;;;;;;5457105;26;20323;-90
2024/05/02 05:10:06;;;;;;;8.60;2.00;;;;;;;;;;5456594;26;20020;-89
2024/05/02 05:12:32;;;;;;;8.18;2.40;;;;;;;;;;5462655;26;20026;-91
2024/05/02 05:14:58;;;;;;;7.63;2.40;;;;;;;;;;5470390;26;19994;-90
2024/05/02 05:17:24;;;;;;;5.90;2.00;;;;;;;;;;5463267;26;20009;-88
2024/05/02 05:19:50;;;;;;;4.15;2.20;;;;;;;;;;5459249;26;19990;-91
2024/05/02 05:22:16;;;;;;;14.27;2.45;;;;;;;;;;5476474;26;20440;-89
2024/05/02 05:24:42;;;;;;;9.77;3.03;;;;;;;;;;5493434;25;20001;-89
2024/05/02 05:27:08;;;;;;;8.02;1.92;;;;;;;;;;5489286;26;20338;-90
2024/05/02 05:29:40;;;;;;;3.30;1.88;;;;;;;;;;5499572;26;20014;-94
2024/05/02 05:32:06;;;;;;;6.65;2.00;;;;;;;;;;5456842;26;20002;-93
2024/05/02 05:34:32;;;;;;;9.43;2.15;;;;;;;;;;5456893;26;19998;-90
2024/05/02 05:36:58;;;;;;;10.55;2.10;;;;;;;;;;5457411;26;20454;-92
2024/05/02 05:39:24;;;;;;;6.90;2.00;;;;;;;;;;5456144;26;20009;-91
2024/05/02 05:41:50;;;;;;;3.88;2.10;;;;;;;;;;5456377;26;20741;-91
2024/05/02 05:44:16;;;;;;;10.60;2.47;;;;;;;;;;5467150;26;20002;-92
2024/05/02 05:46:42;;;;;;;4.20;2.00;;;;;;;;;;5438513;26;19998;-90
2024/05/02 05:49:08;;;;;;;4.25;1.90;;;;;;;;;;5447992;26;20017;-90
2024/05/02 05:51:34;;;;;;;4.13;2.10;;;;;;;;;;5455677;26;19998;-91
2024/05/02 05:54:00;;;;;;;8.48;2.63;;;;;;;;;;5456154;26;20008;-89
2024/05/02 05:56:26;;;;;;;6.82;2.90;;;;;;;;;;5456778;26;20450;-91
2024/05/02 05:58:52;;;;;;;6.90;2.45;;;;;;;;;;5455976;26;19997;-89
2024/05/02 06:01:18;;;;;;;4.93;2.20;;;;;;;;;;5455638;26;20004;-90
2024/05/02 06:03:44;;;;;;;7.30;3.30;;;;;;;;;;5455392;26;20035;-90
2024/05/02 06:06:10;;;;;;;5.80;2.30;;;;;;;;;;5455476;26;19994;-90
2024/05/02 06:08:36;;;;;;;6.95;2.00;;;;;;;;;;5455596;26;20326;-91
2024/05/02 06:11:02;;;;;;;7.65;1.88;;;;;;;;;;5455778;26;19994;-92
2024/05/02 06:13:28;;;;;;;5.80;2.00;;;;;;;;;;5479425;26;20005;-91
2024/05/02 06:15:54;;;;;;;6.15;2.00;;;;;;;;;;5491906;26;20001;-89
2024/05/02 06:18:20;;;;;;;6.85;2.17;;;;;;;;;;5491962;26;20383;-89
2024/05/02 06:20:46;;;;;;;8.55;2.35;;;;;;;;;;5473052;26;20006;-88
2024/05/02 06:23:12;;;;;;;5.88;2.33;;;;;;;;;;5455502;26;20002;-89
2024/05/02 06:25:38;;;;;;;7.72;2.15;;;;;;;;;;5454998;26;20334;-89
2024/05/02 06:28:04;;;;;;;5.90;2.20;;;;;;;;;;5455257;26;19994;-88
2024/05/02 06:30:30;;;;;;;9.23;2.13;;;;;;;;;;5456057;26;19998;-90
2024/05/02 06:32:56;;;;;;;3.47;1.90;;;;;;;;;;5454800;26;19994;-90
2024/05/02 06:35:24;;;;;;;5.82;2.28;;;;;;;;;;5454536;26;20005;-88
2024/05/02 06:37:50;;;;;;;6.90;1.70;;;;;;;;;;5455182;26;19990;-90
2024/05/02 06:40:16;;;;;;;5.10;2.10;;;;;;;;;;5455520;26;19994;-91
2024/05/02 06:42:42;;;;;;;3.80;1.90;;;;;;;;;;5455118;26;20006;-90
2024/05/02 06:45:08;;;;;;;4.40;2.05;;;;;;;;;;5455441;26;20438;-89
2024/05/02 06:47:34;;;;;;;6.78;2.40;;;;;;;;;;5454227;26;19994;-89
2024/05/02 06:50:00;;;;;;;7.47;2.28;;;;;;;;;;5455296;26;20009;-89
2024/05/02 06:52:26;;;;;;;3.22;1.58;;;;;;;;;;5453918;26;20002;-90
2024/05/02 06:54:54;;;;;;;9.57;2.10;;;;;;;;;;5454926;26;19994;-89
2024/05/02 06:57:19;;;;;;;6.25;2.30;;;;;;;;;;5454798;26;19994;-89
2024/05/02 06:59:45;;;;;;;6.82;2.30;;;;;;;;;;5454221;26;20342;-88
2024/05/02 07:02:11;;;;;;;10.13;2.30;;;;;;;;;;5454008;26;20019;-90
2024/05/02 07:04:37;;;;;;;4.85;2.00;;;;;;;;;;5453664;26;19998;-91
2024/05/02 07:07:03;;;;;;;8.63;2.25;;;;;;;;;;5454688;26;20025;-89
2024/05/02 07:09:29;;;;;;;6.10;2.30;;;;;;;;;;5455417;26;20013;-89
2024/05/02 07:11:55;;;;;;;4.65;1.90;;;;;;;;;;5454724;26;20354;-91
2024/05/02 07:14:21;;;;;;;4.18;1.90;;;;;;;;;;5454274;26;20009;-89
2024/05/02 07:16:48;;;;;;;6.88;1.90;;;;;;;;;;5453961;26;19998;-88
2024/05/02 07:19:14;;;;;;;8.07;2.10;;;;;;;;;;5461682;26;20103;-88
2024/05/02 07:21:40;;;;;;;7.25;2.13;;;;;;;;;;5484246;26;20443;-93
2024/05/02 07:24:07;;;;;;;5.35;2.00;;;;;;;;;;5484040;26;20009;-90
2024/05/02 07:26:36;;;;;;;5.03;2.28;;;;;;;;;;5484609;26;19990;-92
2024/05/02 07:29:02;;;;;;;6.95;2.30;;;;;;;;;;5485503;26;20337;-91
2024/05/02 07:31:28;;;;;;;9.02;2.55;;;;;;;;;;5483939;26;19998;-91
2024/05/02 07:33:54;;;;;;;6.05;2.30;;;;;;;;;;5484260;26;20160;-92
2024/05/02 07:36:20;;;;;;;4.72;2.40;;;;;;;;;;5484264;26;19998;-91
2024/05/02 07:38:47;;;;;;;9.63;2.67;;;;;;;;;;5454034;26;20025;-90
2024/05/02 07:41:13;;;;;;;9.23;2.90;;;;;;;;;;5454620;26;19990;-91
2024/05/02 07:43:39;;;;;;;11.52;2.47;;;;;;;;;;5453673;26;20759;-91
2024/05/02 07:46:05;;;;;;;8.55;2.40;;;;;;;;;;5430447;26;19991;-90
2024/05/02 07:48:31;;;;;;;3.10;2.30;;;;;;;;;;5478750;26;20002;-90
2024/05/02 07:50:57;;;;;;;10.25;2.72;;;;;;;;;;5478181;26;19991;-91
2024/05/02 07:53:23;;;;;;;9.32;3.38;;;;;;;;;;5477980;26;20504;-91
2024/05/02 07:55:49;;;;;;;5.32;2.88;;;;;;;;;;5478372;26;19991;-89
2024/05/02 07:58:16;;;;;;;12.05;3.30;;;;;;;;;;5477804;26;19995;-90
2024/05/02 08:00:42;;;;;;;7.15;3.60;;;;;;;;;;5477673;26;20067;-91
2024/05/02 08:03:08;;;;;;;5.68;2.80;;;;;;;;;;5503044;25;20732;-90
2024/05/02 08:05:34;;;;;;;10.02;3.10;;;;;;;;;;5458114;26;19994;-89
2024/05/02 08:08:00;;;;;;;5.10;2.85;;;;;;;;;;5453781;26;20026;-90
2024/05/02 08:10:26;;;;;;;5.03;3.03;;;;;;;;;;5421113;26;19994;-90
2024/05/02 08:12:52;;;;;;;6.15;3.25;;;;;;;;;;5421339;26;20041;-89
2024/05/02 08:15:18;;;;;;;5.95;2.92;;;;;;;;;;5421725;26;19990;-91
2024/05/02 08:17:44;;;;;;;7.65;3.47;;;;;;;;;;5421224;26;19995;-90
2024/05/02 08:20:11;;;;;;;8.63;3.17;;;;;;;;;;5421160;26;19991;-90
2024/05/02 08:22:37;;;;;;;8.07;3.17;;;;;;;;;;5421108;26;19995;-89
2024/05/02 08:25:03;;;;;;;6.13;3.28;;;;;;;;;;5422297;26;20041;-89
2024/05/02 08:27:29;;;;;;;7.35;3.28;;;;;;;;;;5422504;26;19995;-90
2024/05/02 08:29:55;;;;;;;4.97;3.00;;;;;;;;;;5424056;26;19995;-91
2024/05/02 08:32:21;;;;;;;9.90;3.55;;;;;;;;;;5455609;26;20026;-90
2024/05/02 08:34:47;;;;;;;6.53;3.50;;;;;;;;;;5457213;26;19994;-88
2024/05/02 08:37:13;;;;;;;8.98;3.40;;;;;;;;;;5456571;26;19990;-90
2024/05/02 08:39:40;;;;;;;10.23;3.70;;;;;;;;;;5456727;26;19994;-91
2024/05/02 08:42:07;;;;;;;11.10;3.50;;;;;;;;;;5457406;26;20001;-91
2024/05/02 08:44:33;;;;;;;5.90;3.22;;;;;;;;;;5457813;26;19998;-92
2024/05/02 08:47:04;;;;;;;6.18;3.22;;;;;;;;;;5457454;26;19990;-92
2024/05/02 08:49:34;;;;;;;6.03;3.28;;;;;;;;;;5456382;26;19994;-90
2024/05/02 08:52:01;;;;;;;5.07;3.20;;;;;;;;;;5457246;26;20000;-92
2024/05/02 08:54:27;;;;;;;5.47;3.45;;;;;;;;;;5456402;26;19998;-92
2024/05/02 08:56:56;;;;;;;6.60;3.37;;;;;;;;;;5426779;26;20005;-90
2024/05/02 08:59:26;;;;;;;5.53;2.83;;;;;;;;;;5456033;26;20018;-91
2024/05/02 09:01:52;;;;;;;7.85;2.88;;;;;;;;;;5455335;26;19997;-89
2024/05/02 09:04:18;;;;;;;5.60;3.15;;;;;;;;;;5477236;26;19998;-88
2024/05/02 09:06:45;;;;;;;3.55;2.40;;;;;;;;;;5455848;26;20005;-88
2024/05/02 09:09:11;;;;;;;3.88;2.35;;;;;;;;;;5456097;26;19998;-89
2024/05/02 09:11:37;;;;;;;7.40;2.70;;;;;;;;;;5456806;26;20398;-94
2024/05/02 09:14:04;;;;;;;10.65;2.38;;;;;;;;;;5455820;26;20008;-88
2024/05/02 09:16:30;;;;;;;6.70;2.20;;;;;;;;;;5453827;26;20010;-87
2024/05/02 09:18:56;;;;;;;6.90;2.95;;;;;;;;;;5473387;26;20012;-89
2024/05/02 09:21:22;;;;;;;7.47;2.17;;;;;;;;;;5473785;26;20007;-91
2024/05/02 09:23:50;;;;;;;9.32;2.10;;;;;;;;;;5450470;26;20005;-90
2024/05/02 09:26:16;;;;;;;5.83;2.10;;;;;;;;;;5450141;26;19995;-91
2024/05/02 09:28:42;;;;;;;6.97;2.08;;;;;;;;;;5449905;26;20005;-91
2024/05/02 09:31:08;;;;;;;5.55;1.90;;;;;;;;;;5450822;26;19999;-91
2024/05/02 09:33:35;;;;;;;4.15;1.67;;;;;;;;;;5450324;26;20381;-90
2024/05/02 09:36:01;;;;;;;9.63;2.00;;;;;;;;;;5450132;26;20001;-90
2024/05/02 09:38:32;;;;;;;4.07;1.52;;;;;;;;;;5449372;26;20023;-90
2024/05/02 09:41:01;;;;;;;5.32;1.60;;;;;;;;;;5450378;26;20010;-91
2024/05/02 09:43:30;;;;;;;4.25;1.20;;;;;;;;;;5449829;26;20005;-91
2024/05/02 09:45:58;;;;;;;3.55;1.30;;;;;;;;;;5450090;26;20021;-92
2024/05/02 09:48:28;;;;;;;4.25;1.80;;;;;;;;;;5449878;26;20067;-89
2024/05/02 09:50:55;;;;;;;4.78;1.40;;;;;;;;;;5449842;26;20006;-92
2024/05/02 09:53:22;;;;;;;3.90;1.70;;;;;;;;;;5449326;26;19995;-90
2024/05/02 09:55:49;;;;;;;6.13;1.42;;;;;;;;;;5450296;26;19994;-91
2024/05/02 09:58:16;;;;;;;5.72;1.42;;;;;;;;;;5449842;26;20470;-91
2024/05/02 10:00:42;;;;;;;3.85;1.67;;;;;;;;;;5450626;26;19998;-92
2024/05/02 10:03:09;;;;;;;5.00;1.30;;;;;;;;;;5420352;26;19994;-91
2024/05/02 10:05:36;;;;;;;5.72;1.35;;;;;;;;;;5439543;26;19994;-91
2024/05/02 10:08:07;;;;;;;5.18;1.42;;;;;;;;;;5455378;26;20443;-90
2024/05/02 10:10:33;;;;;;;3.28;1.23;;;;;;;;;;5455700;26;20026;-92
2024/05/02 10:13:03;;;;;;;7.25;2.00;;;;;;;;;;5455468;26;20026;-90
2024/05/02 10:15:30;;;;;;;3.58;1.42;;;;;;;;;;5455968;26;19997;-93
2024/05/02 10:17:56;;;;;;;5.60;1.55;;;;;;;;;;5455738;26;20452;-91
2024/05/02 10:20:24;;;;;;;6.10;2.72;;;;;;;;;;5455172;26;19998;-90
2024/05/02 10:22:50;;;;;;;6.80;2.13;;;;;;;;;;5440048;26;19998;-91
2024/05/02 10:25:29;;;;;;;6.75;2.10;;;;;;;;;;5455694;26;20506;-90
2024/05/02 10:28:02;;;;;;;3.10;1.10;;;;;;;;;;5455117;26;19990;-91
2024/05/02 10:30:29;;;;;;;4.57;1.40;;;;;;;;;;5454800;26;19990;-88
2024/05/02 10:32:55;;;;;;;3.78;1.30;;;;;;;;;;5448687;26;20003;-90
2024/05/02 10:35:24;;;;;;;4.10;1.48;;;;;;;;;;5419122;26;20006;-89
2024/05/02 10:37:50;;;;;;;2.55;1.02;;;;;;;;;;5424001;26;20347;-88
2024/05/02 10:40:17;;;;;;;6.45;1.70;;;;;;;;;;5455430;26;19997;-90
2024/05/02 10:42:44;;;;;;;3.97;1.30;;;;;;;;;;5455491;26;19998;-89
2024/05/02 10:45:10;;;;;;;4.25;1.20;;;;;;;;;;5456102;26;19994;-89
2024/05/02 10:47:39;;;;;;;5.07;1.45;;;;;;;;;;5454752;26;20435;-89
2024/05/02 10:50:06;;;;;;;3.08;1.48;;;;;;;;;;5454929;26;19998;-91
2024/05/02 10:52:34;;;;;;;5.38;1.40;;;;;;;;;;5455681;26;20002;-92
2024/05/02 10:55:00;;;;;;;3.20;1.10;;;;;;;;;;5453750;26;20454;-91
2024/05/02 10:57:26;;;;;;;7.10;1.40;;;;;;;;;;5443291;26;20075;-93
2024/05/02 10:59:53;;;;;;;4.75;1.35;;;;;;;;;;5418715;26;19991;-90
2024/05/02 11:02:20;;;;;;;4.40;1.58;;;;;;;;;;5425204;26;20046;-89
2024/05/02 11:04:46;;;;;;;4.05;1.45;;;;;;;;;;5459499;26;20332;-86
2024/05/02 11:07:12;;;;;;;4.15;1.40;;;;;;;;;;5462305;26;20013;-86
2024/05/02 11:09:39;;;;;;;3.65;1.35;;;;;;;;;;5455284;26;20009;-93
2024/05/02 11:12:05;;;;;;;4.50;1.73;;;;;;;;;;5453017;26;20332;-92
2024/05/02 11:14:32;;;;;;;2.67;1.25;;;;;;;;;;5466790;26;19994;-91
2024/05/02 11:16:59;;;;;;;3.88;1.38;;;;;;;;;;5453982;26;19998;-89
2024/05/02 11:19:34;;;;;;;2.58;1.25;;;;;;;;;;5453045;26;19990;-88
2024/05/02 11:22:00;;;;;;;4.53;1.33;;;;;;;;;;5453521;26;20009;-91
2024/05/02 11:24:26;;;;;;;4.90;1.60;;;;;;;;;;5485328;26;19998;-92
2024/05/02 11:26:52;;;;;;;4.20;1.13;;;;;;;;;;5453486;26;19994;-90
2024/05/02 11:29:18;;;;;;;6.25;1.88;;;;;;;;;;5452343;26;19994;-92
2024/05/02 11:31:46;;;;;;;4.30;1.85;;;;;;;;;;5442607;26;20473;-87
2024/05/02 11:34:12;;;;;;;7.68;1.13;;;;;;;;;;5484221;26;20026;-89
2024/05/02 11:36:38;;;;;;;2.80;1.13;;;;;;;;;;5456990;26;19998;-91
2024/05/02 11:39:04;;;;;;;1.58;0.82;;;;;;;;;;5450813;26;20434;-88
2024/05/02 11:41:31;;;;;;;2.95;0.98;;;;;;;;;;5486200;26;20006;-87
2024/05/02 11:43:57;;;;;;;1.75;0.90;;;;;;;;;;5473748;26;19998;-90
2024/05/02 11:46:25;;;;;;;2.35;1.02;;;;;;;;;;5488812;26;20054;-90
2024/05/02 11:48:51;;;;;;;2.15;1.40;;;;;;;;;;5487213;26;20146;-88
2024/05/02 11:51:17;;;;;;;3.20;1.00;;;;;;;;;;5467581;26;19998;-90
2024/05/02 11:53:43;;;;;;;2.10;1.23;;;;;;;;;;5475848;26;20010;-88
2024/05/02 11:56:10;;;;;;;3.72;1.17;;;;;;;;;;5479569;26;19994;-92
2024/05/02 11:58:36;;;;;;;4.60;1.38;;;;;;;;;;5468152;26;20005;-91
2024/05/02 12:01:02;;;;;;;1.67;1.10;;;;;;;;;;5467108;26;20006;-89
2024/05/02 12:03:28;;;;;;;6.72;1.17;;;;;;;;;;5421979;26;20030;-89
2024/05/02 12:05:55;;;;;;;3.30;0.95;;;;;;;;;;5421363;26;20007;-91
2024/05/02 12:08:21;;;;;;;4.18;1.13;;;;;;;;;;5421200;26;20006;-88
2024/05/02 12:10:47;;;;;;;5.65;1.00;;;;;;;;;;5436659;26;20356;-90
2024/05/02 12:13:13;;;;;;;2.15;1.00;;;;;;;;;;5466917;26;19990;-92
2024/05/02 12:15:39;;;;;;;3.30;1.50;;;;;;;;;;5475404;26;20016;-91
2024/05/02 12:18:05;;;;;;;1.73;1.30;;;;;;;;;;5469808;26;20450;-87
2024/05/02 12:20:31;;;;;;;2.83;1.02;;;;;;;;;;5467220;26;20447;-91
2024/05/02 12:22:57;;;;;;;1.83;1.40;;;;;;;;;;5486236;26;20026;-90
2024/05/02 12:25:23;;;;;;;4.38;1.25;;;;;;;;;;5469713;26;20134;-91
2024/05/02 12:27:49;;;;;;;3.10;1.25;;;;;;;;;;5456822;26;19994;-88
2024/05/02 12:30:15;;;;;;;2.83;1.05;;;;;;;;;;5480586;26;20013;-90
2024/05/02 12:32:41;;;;;;;2.00;0.77;;;;;;;;;;5485730;26;20422;-92
2024/05/02 12:35:07;;;;;;;2.35;0.93;;;;;;;;;;5468879;26;20009;-90
2024/05/02 12:37:33;;;;;;;1.90;0.80;;;;;;;;;;5477970;26;20009;-90
2024/05/02 12:39:59;;;;;;;5.22;1.10;;;;;;;;;;5471355;26;20431;-89
2024/05/02 12:42:25;;;;;;;2.15;0.90;;;;;;;;;;5473928;26;20002;-91
2024/05/02 12:44:51;;;;;;;1.55;1.20;;;;;;;;;;5479735;26;20458;-90
2024/05/02 12:47:17;;;;;;;7.60;0.90;;;;;;;;;;5478748;26;19999;-89
2024/05/02 12:49:43;;;;;;;2.47;1.10;;;;;;;;;;5478340;26;20017;-88
2024/05/02 12:52:09;;;;;;;3.83;0.90;;;;;;;;;;5424668;26;20009;-88
2024/05/02 12:54:36;;;;;;;4.90;1.00;;;;;;;;;;5424838;26;20008;-88
2024/05/02 12:57:02;;;;;;;1.17;0.70;;;;;;;;;;5445042;26;20457;-90
2024/05/02 12:59:30;;;;;;;0.77;0.77;;;;;;;;;;5477675;26;20002;-90
2024/05/02 13:01:56;;;;;;;3.35;1.63;;;;;;;;;;5453087;26;19998;-88
2024/05/02 13:04:22;;;;;;;1.70;0.70;;;;;;;;;;5482645;26;20331;-88
2024/05/02 13:06:48;;;;;;;2.38;0.90;;;;;;;;;;5488853;26;20442;-87
2024/05/02 13:09:14;;;;;;;5.18;0.90;;;;;;;;;;5473286;26;20075;-88
2024/05/02 13:11:41;;;;;;;3.38;1.58;;;;;;;;;;5486326;26;20179;-89
2024/05/02 13:14:07;;;;;;;3.15;0.90;;;;;;;;;;5486653;26;20326;-90
2024/05/02 13:16:36;;;;;;;3.15;0.93;;;;;;;;;;5485593;26;19994;-93
2024/05/02 13:19:02;;;;;;;1.75;0.60;;;;;;;;;;5487923;26;19994;-91
2024/05/02 13:21:28;;;;;;;2.97;0.88;;;;;;;;;;5487153;26;20009;-89
2024/05/02 13:23:54;;;;;;;3.33;0.82;;;;;;;;;;5487238;26;19990;-91
2024/05/02 13:26:21;;;;;;;3.55;0.95;;;;;;;;;;5456476;26;20005;-88
2024/05/02 13:28:47;;;;;;;2.30;0.80;;;;;;;;;;5457345;26;19998;-91
2024/05/02 13:31:13;;;;;;;3.50;1.15;;;;;;;;;;5455965;26;20061;-88
2024/05/02 13:33:39;;;;;;;6.78;2.97;;;;;;;;;;5455601;26;20335;-90
2024/05/02 13:36:05;;;;;;;3.53;1.08;;;;;;;;;;5455356;26;20009;-88
2024/05/02 13:38:31;;;;;;;3.95;1.13;;;;;;;;;;5455423;26;20035;-91
2024/05/02 13:40:57;;;;;;;1.95;1.40;;;;;;;;;;5456001;26;19990;-90
2024/05/02 13:43:23;;;;;;;7.97;4.68;;;;;;;;;;5455843;26;19998;-91
2024/05/02 13:45:50;;;;;;;2.17;1.23;;;;;;;;;;5456817;26;20006;-92
2024/05/02 13:48:16;;;;;;;1.45;0.68;;;;;;;;;;5455875;26;19998;-88
2024/05/02 13:50:42;;;;;;;2.72;1.70;;;;;;;;;;5455160;26;20621;-88
2024/05/02 13:53:08;;;;;;;3.40;1.13;;;;;;;;;;5455932;26;20004;-88
2024/05/02 13:55:34;;;;;;;1.38;0.80;;;;;;;;;;5487216;26;20001;-89
2024/05/02 13:58:00;;;;;;;1.42;0.50;;;;;;;;;;5455314;26;20070;-89
2024/05/02 14:00:26;;;;;;;4.30;2.28;;;;;;;;;;5454913;26;20019;-92
2024/05/02 14:02:52;;;;;;;2.33;0.75;;;;;;;;;;5454802;26;19994;-89
2024/05/02 14:05:18;;;;;;;2.55;0.90;;;;;;;;;;5456651;26;19990;-90
2024/05/02 14:07:45;;;;;;;1.83;0.80;;;;;;;;;;5454856;26;20066;-91
2024/05/02 14:10:11;;;;;;;1.88;0.70;;;;;;;;;;5455761;26;20075;-91
2024/05/02 14:12:37;;;;;;;7.00;0.90;;;;;;;;;;5487054;26;19994;-88
2024/05/02 14:15:03;;;;;;;1.73;0.60;;;;;;;;;;5454968;26;20320;-87
2024/05/02 14:17:29;;;;;;;1.63;0.68;;;;;;;;;;5454769;26;20009;-92
2024/05/02 14:19:55;;;;;;;2.20;0.60;;;;;;;;;;5454747;26;20002;-91
2024/05/02 14:22:21;;;;;;;2.22;1.13;;;;;;;;;;5467583;26;20003;-87
2024/05/02 14:24:47;;;;;;;5.35;0.82;;;;;;;;;;5456718;26;20009;-91
2024/05/02 14:27:13;;;;;;;1.38;0.65;;;;;;;;;;5481339;26;19998;-89
2024/05/02 14:29:39;;;;;;;2.53;0.65;;;;;;;;;;5456516;26;20013;-91
2024/05/02 14:32:06;;;;;;;1.55;0.60;;;;;;;;;;5473946;26;20005;-89
2024/05/02 14:34:35;;;;;;;0.82;0.75;;;;;;;;;;5433272;26;22289;-90
2024/05/02 14:37:01;;;;;;;2.10;0.60;;;;;;;;;;5454339;26;20047;-90